createdAt,value
2022-11-30T00:01:22.617Z,5.86
2022-11-30T00:03:52.885Z,5.83
2022-11-30T00:06:25.736Z,5.83
2022-11-30T00:08:57.209Z,5.77
2022-11-30T00:11:27.197Z,5.72
2022-11-30T00:13:54.248Z,5.56
2022-11-30T00:16:21.796Z,5.61
2022-11-30T00:18:48.934Z,5.55
2022-11-30T00:21:16.681Z,5.63
2022-11-30T00:23:45.621Z,5.61
2022-11-30T00:26:16.107Z,5.68
2022-11-30T00:28:45.307Z,5.72
2022-11-30T00:31:14.756Z,5.74
2022-11-30T00:33:42.333Z,5.26
2022-11-30T00:36:15.244Z,5.66
2022-11-30T00:38:42.821Z,5.66
2022-11-30T00:41:10.231Z,5.62
2022-11-30T00:43:37.235Z,5.67
2022-11-30T00:46:04.775Z,5.54
2022-11-30T00:48:31.843Z,5.68
2022-11-30T00:50:58.732Z,5.71
2022-11-30T00:53:25.876Z,5.69
2022-11-30T00:55:52.673Z,5.54
2022-11-30T00:58:20.076Z,5.71
2022-11-30T01:00:47.232Z,5.70
2022-11-30T01:03:14.682Z,5.74
2022-11-30T01:05:43.464Z,5.75
2022-11-30T01:08:11.845Z,5.68
2022-11-30T01:10:41.210Z,5.65
2022-11-30T01:13:08.799Z,5.72
2022-11-30T01:15:38.563Z,5.68
2022-11-30T01:18:06.282Z,5.58
2022-11-30T01:20:33.536Z,5.27
2022-11-30T01:23:00.784Z,5.61
2022-11-30T01:25:27.726Z,5.54
2022-11-30T01:27:54.621Z,5.44
2022-11-30T01:30:21.795Z,5.42
2022-11-30T01:32:48.591Z,5.39
2022-11-30T01:35:15.609Z,5.33
2022-11-30T01:37:42.617Z,5.29
2022-11-30T01:40:11.367Z,5.25
2022-11-30T01:42:38.316Z,5.22
2022-11-30T01:45:07.307Z,5.19
2022-11-30T01:47:42.209Z,5.20
2022-11-30T01:50:17.739Z,5.21
2022-11-30T01:52:53.902Z,5.18
2022-11-30T01:55:34.940Z,5.21
2022-11-30T01:58:15.963Z,5.26
2022-11-30T02:00:47.253Z,5.31
2022-11-30T02:03:36.294Z,5.35
2022-11-30T02:06:03.564Z,5.39
2022-11-30T02:08:31.723Z,5.15
2022-11-30T02:11:02.953Z,5.38
2022-11-30T02:13:45.237Z,5.38
2022-11-30T02:16:34.263Z,5.38
2022-11-30T02:19:13.662Z,5.40
2022-11-30T02:22:19.744Z,5.42
2022-11-30T02:24:59.006Z,5.44
2022-11-30T02:27:38.097Z,5.44
2022-11-30T02:30:16.505Z,5.40
2022-11-30T02:32:51.901Z,5.29
2022-11-30T02:35:22.109Z,5.40
2022-11-30T02:37:52.270Z,5.38
2022-11-30T02:40:20.903Z,5.33
2022-11-30T02:42:50.472Z,5.35
2022-11-30T02:45:22.105Z,5.35
2022-11-30T02:48:13.971Z,5.53
2022-11-30T02:51:07.201Z,5.54
2022-11-30T02:53:34.524Z,5.53
2022-11-30T02:56:01.407Z,5.49
2022-11-30T02:58:28.449Z,5.17
2022-11-30T03:00:55.312Z,5.42
2022-11-30T03:03:22.953Z,5.41
2022-11-30T03:05:49.917Z,5.20
2022-11-30T03:08:16.811Z,5.43
2022-11-30T03:10:43.678Z,5.38
2022-11-30T03:13:10.878Z,5.35
2022-11-30T03:15:37.687Z,5.32
2022-11-30T03:18:06.277Z,5.45
2022-11-30T03:20:33.244Z,5.29
2022-11-30T03:23:03.231Z,5.39
2022-11-30T03:25:30.131Z,5.36
2022-11-30T03:27:56.975Z,5.32
2022-11-30T03:30:23.812Z,5.32
2022-11-30T03:32:51.737Z,5.32
2022-11-30T03:35:19.322Z,5.38
2022-11-30T03:37:47.583Z,5.40
2022-11-30T03:40:14.539Z,5.41
2022-11-30T03:42:41.784Z,5.40
2022-11-30T03:45:08.923Z,5.42
2022-11-30T03:47:35.830Z,5.36
2022-11-30T03:50:03.147Z,5.39
2022-11-30T03:52:30.172Z,5.42
2022-11-30T03:54:57.066Z,5.45
2022-11-30T03:57:24.138Z,5.41
2022-11-30T03:59:51.097Z,5.35
2022-11-30T04:02:17.976Z,5.43
2022-11-30T04:04:45.324Z,5.50
2022-11-30T04:07:12.632Z,5.43
2022-11-30T04:09:39.474Z,5.41
2022-11-30T04:12:06.722Z,5.33
2022-11-30T04:14:33.653Z,5.33
2022-11-30T04:17:00.514Z,5.42
2022-11-30T04:19:27.401Z,5.40
2022-11-30T04:21:54.555Z,5.35
2022-11-30T04:24:21.621Z,5.44
2022-11-30T04:26:48.484Z,5.32
2022-11-30T04:29:15.377Z,5.41
2022-11-30T04:31:42.402Z,5.40
2022-11-30T04:34:09.975Z,5.46
2022-11-30T04:36:36.891Z,5.40
2022-11-30T04:39:04.023Z,5.41
2022-11-30T04:41:30.926Z,5.32
2022-11-30T04:43:57.742Z,5.33
2022-11-30T04:46:24.858Z,5.35
2022-11-30T04:48:51.804Z,5.39
2022-11-30T04:51:18.812Z,5.38
2022-11-30T04:53:45.907Z,5.29
2022-11-30T04:56:12.954Z,5.39
2022-11-30T04:58:39.952Z,4.89
2022-11-30T05:01:08.390Z,5.29
2022-11-30T05:03:35.799Z,5.21
2022-11-30T05:06:03.619Z,5.27
2022-11-30T05:08:30.883Z,5.13
2022-11-30T05:10:58.177Z,5.18
2022-11-30T05:13:26.246Z,5.20
2022-11-30T05:15:55.992Z,5.16
2022-11-30T05:18:23.493Z,5.02
2022-11-30T05:20:51.997Z,5.13
2022-11-30T05:23:20.097Z,4.85
2022-11-30T05:25:47.172Z,5.28
2022-11-30T05:28:14.168Z,5.21
2022-11-30T05:30:42.475Z,5.22
2022-11-30T05:33:09.881Z,5.02
2022-11-30T05:35:37.030Z,5.28
2022-11-30T05:38:04.491Z,5.28
2022-11-30T05:40:33.689Z,5.35
2022-11-30T05:43:02.675Z,5.29
2022-11-30T05:45:30.459Z,5.36
2022-11-30T05:47:57.663Z,5.39
2022-11-30T05:50:24.706Z,5.21
2022-11-30T05:52:56.682Z,5.29
2022-11-30T05:55:24.672Z,5.17
2022-11-30T05:57:51.852Z,5.48
2022-11-30T06:00:19.541Z,5.38
2022-11-30T06:02:47.481Z,5.47
2022-11-30T06:05:14.451Z,5.32
2022-11-30T06:07:41.711Z,5.36
2022-11-30T06:10:09.315Z,5.51
2022-11-30T06:12:36.178Z,5.56
2022-11-30T06:15:03.755Z,5.56
2022-11-30T06:17:31.068Z,5.57
2022-11-30T06:19:58.081Z,5.62
2022-11-30T06:22:26.027Z,5.70
2022-11-30T06:24:53.401Z,5.71
2022-11-30T06:27:20.416Z,5.71
2022-11-30T06:29:47.447Z,5.68
2022-11-30T06:32:14.529Z,5.61
2022-11-30T06:34:41.533Z,5.58
2022-11-30T06:37:08.532Z,5.62
2022-11-30T06:40:04.848Z,5.57
2022-11-30T06:42:22.525Z,5.46
2022-11-30T06:44:49.840Z,5.59
2022-11-30T06:47:16.792Z,5.41
2022-11-30T06:49:44.048Z,5.56
2022-11-30T06:52:10.868Z,5.55
2022-11-30T06:54:37.722Z,5.30
2022-11-30T06:57:04.760Z,5.62
2022-11-30T06:59:31.629Z,5.55
2022-11-30T07:02:01.681Z,5.72
2022-11-30T07:04:33.511Z,5.75
2022-11-30T07:07:00.488Z,5.76
2022-11-30T07:09:27.427Z,5.69
2022-11-30T07:11:54.594Z,5.51
2022-11-30T07:14:21.758Z,5.72
2022-11-30T07:16:48.791Z,5.78
2022-11-30T07:19:16.144Z,5.70
2022-11-30T07:21:43.103Z,5.70
2022-11-30T07:24:32.545Z,5.73
2022-11-30T07:27:01.903Z,5.76
2022-11-30T07:29:29.009Z,5.62
2022-11-30T07:31:56.685Z,5.62
2022-11-30T07:34:23.834Z,5.75
2022-11-30T07:36:50.911Z,5.80
2022-11-30T07:39:17.914Z,5.78
2022-11-30T07:41:45.144Z,5.65
2022-11-30T07:44:12.349Z,5.85
2022-11-30T07:46:39.433Z,5.99
2022-11-30T07:49:07.731Z,5.92
2022-11-30T07:51:35.465Z,5.90
2022-11-30T07:54:03.242Z,6.04
2022-11-30T07:56:30.161Z,6.09
2022-11-30T07:59:00.196Z,6.05
2022-11-30T08:01:30.065Z,5.85
2022-11-30T08:03:57.705Z,6.18
2022-11-30T08:06:27.519Z,6.20
2022-11-30T08:08:57.693Z,6.27
2022-11-30T08:11:28.417Z,6.35
2022-11-30T08:13:55.265Z,6.38
2022-11-30T08:16:25.176Z,6.41
2022-11-30T08:18:52.959Z,6.48
2022-11-30T08:21:21.260Z,6.55
2022-11-30T08:23:54.002Z,6.48
2022-11-30T08:26:27.717Z,6.47
2022-11-30T08:28:55.799Z,6.54
2022-11-30T08:31:27.997Z,6.56
2022-11-30T08:33:57.573Z,6.57
2022-11-30T08:36:25.831Z,6.54
2022-11-30T08:38:52.898Z,6.50
2022-11-30T08:41:22.256Z,6.52
2022-11-30T08:43:50.904Z,6.48
2022-11-30T08:46:50.421Z,6.43
2022-11-30T08:49:24.939Z,6.38
2022-11-30T08:54:45.491Z,6.58
2022-11-30T08:57:13.212Z,6.55
2022-11-30T08:59:40.232Z,6.56
2022-11-30T09:02:14.388Z,6.51
2022-11-30T09:04:41.409Z,6.69
2022-11-30T09:07:09.642Z,6.66
2022-11-30T09:09:37.977Z,6.76
2022-11-30T09:12:06.322Z,6.77
2022-11-30T09:14:33.633Z,6.85
2022-11-30T09:17:00.533Z,6.91
2022-11-30T09:19:27.478Z,6.81
2022-11-30T09:21:54.551Z,6.96
2022-11-30T09:24:21.607Z,6.92
2022-11-30T09:26:48.929Z,6.75
2022-11-30T09:29:15.808Z,6.67
2022-11-30T09:31:42.731Z,6.89
2022-11-30T09:34:11.230Z,6.81
2022-11-30T09:36:38.589Z,7.01
2022-11-30T09:39:06.544Z,6.74
2022-11-30T09:42:01.963Z,7.05
2022-11-30T09:44:56.666Z,7.11
2022-11-30T09:47:51.783Z,7.11
2022-11-30T09:50:23.013Z,6.93
2022-11-30T09:53:04.119Z,7.17
2022-11-30T09:55:36.155Z,7.01
2022-11-30T09:58:05.539Z,7.29
2022-11-30T10:00:34.932Z,7.17
2022-11-30T10:03:05.967Z,7.18
2022-11-30T10:06:12.131Z,7.27
2022-11-30T10:08:53.104Z,7.12
2022-11-30T10:11:38.427Z,7.24
2022-11-30T10:14:25.560Z,7.23
2022-11-30T10:17:04.889Z,7.01
2022-11-30T10:19:47.037Z,7.07
2022-11-30T10:22:29.601Z,7.16
2022-11-30T10:25:12.470Z,7.36
2022-11-30T10:27:39.941Z,7.44
2022-11-30T10:30:16.114Z,7.40
2022-11-30T10:32:47.524Z,7.39
2022-11-30T10:35:28.622Z,7.49
2022-11-30T10:37:58.172Z,7.43
2022-11-30T10:40:31.460Z,7.49
2022-11-30T10:43:04.155Z,7.45
2022-11-30T10:45:32.905Z,7.45
2022-11-30T10:48:15.372Z,7.40
2022-11-30T10:50:42.717Z,7.44
2022-11-30T10:53:12.352Z,7.40
2022-11-30T10:55:46.032Z,7.15
2022-11-30T10:58:26.484Z,7.23
2022-11-30T11:01:32.462Z,7.34
2022-11-30T11:04:10.436Z,7.36
2022-11-30T11:06:44.043Z,7.10
2022-11-30T11:09:42.337Z,7.24
2022-11-30T11:12:26.243Z,7.16
2022-11-30T11:15:10.735Z,7.26
2022-11-30T11:17:37.654Z,7.27
2022-11-30T11:20:28.907Z,7.36
2022-11-30T11:22:56.356Z,7.33
2022-11-30T11:25:31.859Z,6.99
2022-11-30T11:28:20.364Z,7.27
2022-11-30T11:30:47.989Z,7.27
2022-11-30T11:33:15.174Z,7.34
2022-11-30T11:35:46.581Z,7.41
2022-11-30T11:38:27.310Z,7.38
2022-11-30T11:41:07.294Z,7.41
2022-11-30T11:43:56.928Z,7.37
2022-11-30T11:46:24.834Z,7.39
2022-11-30T11:49:01.759Z,7.16
2022-11-30T11:51:34.207Z,7.20
2022-11-30T11:54:19.944Z,7.23
2022-11-30T11:56:48.150Z,7.10
2022-11-30T11:59:33.700Z,7.17
2022-11-30T12:02:03.956Z,7.15
2022-11-30T12:05:08.511Z,7.09
2022-11-30T12:07:45.901Z,6.10
2022-11-30T12:13:17.222Z,7.29
2022-11-30T12:15:57.064Z,7.35
2022-11-30T12:18:30.489Z,7.38
2022-11-30T12:21:07.474Z,7.28
2022-11-30T12:23:45.676Z,6.53
2022-11-30T12:26:41.294Z,7.42
2022-11-30T12:30:03.163Z,7.31
2022-11-30T12:32:56.345Z,7.20
2022-11-30T12:35:42.010Z,7.25
2022-11-30T12:38:37.735Z,7.21
2022-11-30T12:41:04.792Z,7.28
2022-11-30T12:43:50.168Z,7.30
2022-11-30T12:46:24.589Z,7.26
2022-11-30T12:49:27.849Z,7.32
2022-11-30T12:52:19.946Z,7.28
2022-11-30T12:55:22.406Z,7.22
2022-11-30T12:57:56.392Z,7.21
2022-11-30T13:00:25.542Z,7.13
2022-11-30T13:03:13.696Z,7.23
2022-11-30T13:06:00.145Z,6.81
2022-11-30T13:08:39.372Z,7.12
2022-11-30T13:11:12.493Z,7.12
2022-11-30T13:13:49.322Z,7.23
2022-11-30T13:16:16.788Z,7.20
2022-11-30T13:18:43.911Z,7.14
2022-11-30T13:21:40.275Z,7.13
2022-11-30T13:24:33.491Z,7.06
2022-11-30T13:27:18.486Z,7.14
2022-11-30T13:29:51.511Z,7.22
2022-11-30T13:32:48.977Z,7.12
2022-11-30T13:35:30.179Z,7.27
2022-11-30T13:38:34.537Z,7.23
2022-11-30T13:41:20.473Z,7.26
2022-11-30T13:43:48.527Z,7.25
2022-11-30T13:46:26.015Z,7.15
2022-11-30T13:49:19.249Z,7.13
2022-11-30T13:51:48.130Z,7.02
2022-11-30T13:54:40.168Z,7.09
2022-11-30T13:57:25.597Z,7.04
2022-11-30T13:59:55.043Z,7.09
2022-11-30T14:05:16.224Z,7.10
2022-11-30T14:07:50.343Z,7.10
2022-11-30T14:10:42.921Z,7.12
2022-11-30T14:13:13.597Z,7.14
2022-11-30T14:15:43.644Z,7.14
2022-11-30T14:18:10.770Z,7.16
2022-11-30T14:20:50.409Z,7.12
2022-11-30T14:23:38.298Z,7.08
2022-11-30T14:26:11.507Z,6.86
2022-11-30T14:28:54.062Z,7.09
2022-11-30T14:31:25.168Z,7.01
2022-11-30T14:34:17.261Z,7.08
2022-11-30T14:36:48.875Z,7.05
2022-11-30T14:39:36.553Z,7.10
2022-11-30T14:42:05.416Z,7.04
2022-11-30T14:44:39.554Z,7.04
2022-11-30T14:47:14.908Z,6.98
2022-11-30T14:49:48.006Z,6.97
2022-11-30T14:52:24.875Z,6.87
2022-11-30T14:55:27.283Z,6.83
2022-11-30T14:58:07.230Z,6.80
2022-11-30T15:00:41.203Z,6.69
2022-11-30T15:03:27.466Z,6.81
2022-11-30T15:05:58.687Z,6.78
2022-11-30T15:08:39.242Z,6.79
2022-11-30T15:11:09.852Z,6.77
2022-11-30T15:13:43.406Z,6.77
2022-11-30T15:16:22.315Z,6.70
2022-11-30T15:18:49.730Z,6.65
2022-11-30T15:21:31.220Z,6.50
2022-11-30T15:24:00.908Z,6.61
2022-11-30T15:26:50.489Z,5.70
2022-11-30T15:29:34.828Z,6.51
2022-11-30T15:32:05.550Z,6.55
2022-11-30T15:34:45.495Z,6.62
2022-11-30T15:37:13.392Z,6.63
2022-11-30T15:39:44.899Z,6.54
2022-11-30T15:42:20.680Z,6.55
2022-11-30T15:44:48.917Z,6.51
2022-11-30T15:47:35.275Z,6.61
2022-11-30T15:50:03.657Z,6.11
2022-11-30T15:52:31.460Z,6.43
2022-11-30T15:55:03.505Z,6.47
2022-11-30T15:57:57.885Z,6.50
2022-11-30T16:00:25.517Z,6.53
2022-11-30T16:03:11.506Z,6.63
2022-11-30T16:05:39.860Z,6.47
2022-11-30T16:08:16.803Z,6.64
2022-11-30T16:10:44.094Z,6.58
2022-11-30T16:13:20.806Z,6.49
2022-11-30T16:15:50.949Z,6.49
2022-11-30T16:18:26.519Z,6.48
2022-11-30T16:21:04.569Z,6.07
2022-11-30T16:23:35.039Z,5.22
2022-11-30T16:26:02.379Z,6.48
2022-11-30T16:28:29.538Z,6.23
2022-11-30T16:31:00.853Z,6.03
2022-11-30T16:33:28.304Z,6.53
2022-11-30T16:36:03.403Z,6.44
2022-11-30T16:38:30.927Z,6.52
2022-11-30T16:41:16.196Z,6.55
2022-11-30T16:43:44.639Z,6.49
2022-11-30T16:46:17.859Z,6.49
2022-11-30T16:48:45.493Z,6.47
2022-11-30T16:51:25.210Z,6.29
2022-11-30T16:53:52.962Z,6.45
2022-11-30T16:56:19.969Z,6.06
2022-11-30T16:58:47.069Z,6.45
2022-11-30T17:01:21.210Z,6.38
2022-11-30T17:03:52.276Z,5.97
2022-11-30T17:06:21.969Z,6.34
2022-11-30T17:08:50.344Z,6.41
2022-11-30T17:11:38.045Z,6.24
2022-11-30T17:14:05.797Z,6.25
2022-11-30T17:16:33.218Z,6.39
2022-11-30T17:19:00.953Z,6.13
2022-11-30T17:21:31.601Z,6.27
2022-11-30T17:23:59.080Z,6.25
2022-11-30T17:26:26.449Z,6.01
2022-11-30T17:28:53.921Z,6.18
2022-11-30T17:31:21.981Z,6.25
2022-11-30T17:33:49.554Z,6.13
2022-11-30T17:36:18.737Z,6.01
2022-11-30T17:38:46.058Z,6.17
2022-11-30T17:41:19.198Z,5.90
2022-11-30T17:43:47.373Z,6.06
2022-11-30T17:46:17.742Z,5.94
2022-11-30T17:48:46.329Z,6.04
2022-11-30T17:51:13.817Z,5.89
2022-11-30T17:53:42.506Z,6.15
2022-11-30T17:56:16.070Z,6.14
2022-11-30T17:58:45.057Z,6.20
2022-11-30T18:01:26.298Z,6.19
2022-11-30T18:03:55.278Z,6.20
2022-11-30T18:06:23.054Z,6.11
2022-11-30T18:08:50.422Z,6.11
2022-11-30T18:11:23.006Z,6.10
2022-11-30T18:13:51.844Z,6.07
2022-11-30T18:16:27.838Z,6.08
2022-11-30T18:18:57.338Z,6.14
2022-11-30T18:21:28.171Z,6.06
2022-11-30T18:23:56.273Z,6.09
2022-11-30T18:26:25.429Z,6.01
2022-11-30T18:28:54.599Z,6.00
2022-11-30T18:31:21.920Z,5.90
2022-11-30T18:33:56.584Z,5.75
2022-11-30T18:36:24.355Z,5.70
2022-11-30T18:38:51.270Z,5.84
2022-11-30T18:41:18.407Z,5.75
2022-11-30T18:43:45.409Z,5.87
2022-11-30T18:46:14.484Z,5.93
2022-11-30T18:48:41.940Z,5.99
2022-11-30T18:51:18.149Z,5.84
2022-11-30T18:53:45.710Z,5.77
2022-11-30T18:56:16.146Z,5.84
2022-11-30T18:58:44.331Z,5.68
2022-11-30T19:01:17.180Z,5.81
2022-11-30T19:03:49.337Z,5.70
2022-11-30T19:06:16.489Z,5.45
2022-11-30T19:08:43.690Z,5.70
2022-11-30T19:11:10.817Z,5.71
2022-11-30T19:13:37.837Z,5.71
2022-11-30T19:16:07.640Z,5.54
2022-11-30T19:18:35.496Z,5.75
2022-11-30T19:21:07.795Z,5.75
2022-11-30T19:23:36.745Z,5.71
2022-11-30T19:26:05.881Z,5.63
2022-11-30T19:28:34.932Z,5.75
2022-11-30T19:31:25.209Z,5.83
2022-11-30T19:33:54.229Z,5.79
2022-11-30T19:36:27.974Z,5.85
2022-11-30T19:38:57.067Z,5.75
2022-11-30T19:41:24.218Z,5.85
2022-11-30T19:44:02.498Z,5.92
2022-11-30T19:46:32.028Z,5.80
2022-11-30T19:49:01.522Z,5.85
2022-11-30T19:51:30.587Z,5.80
2022-11-30T19:53:59.412Z,5.81
2022-11-30T19:56:29.313Z,5.95
2022-11-30T19:58:59.957Z,5.89
2022-11-30T20:01:31.535Z,5.93
2022-11-30T20:03:58.785Z,5.97
2022-11-30T20:06:29.066Z,6.00
2022-11-30T20:08:56.463Z,5.88
2022-11-30T20:11:24.601Z,5.89
2022-11-30T20:13:52.486Z,5.94
2022-11-30T20:16:21.875Z,5.80
2022-11-30T20:18:56.836Z,5.95
2022-11-30T20:21:26.840Z,5.91
2022-11-30T20:23:58.199Z,5.78
2022-11-30T20:26:30.143Z,5.98
2022-11-30T20:28:59.052Z,5.87
2022-11-30T20:31:28.029Z,5.98
2022-11-30T20:33:55.466Z,5.99
2022-11-30T20:36:22.815Z,6.10
2022-11-30T20:38:50.506Z,6.12
2022-11-30T20:41:20.761Z,6.09
2022-11-30T20:43:48.316Z,5.99
2022-11-30T20:46:23.131Z,6.09
2022-11-30T20:48:51.355Z,6.00
2022-11-30T20:51:30.706Z,5.96
2022-11-30T20:54:06.954Z,5.65
2022-11-30T20:56:36.913Z,5.92
2022-11-30T20:59:06.395Z,5.49
2022-11-30T21:01:34.124Z,5.71
2022-11-30T21:04:01.623Z,5.67
2022-11-30T21:06:29.972Z,5.77
2022-11-30T21:08:57.916Z,5.68
2022-11-30T21:11:26.980Z,5.85
2022-11-30T21:13:55.636Z,5.89
2022-11-30T21:16:28.197Z,5.86
2022-11-30T21:19:00.189Z,5.85
2022-11-30T21:21:33.075Z,5.82
2022-11-30T21:24:03.843Z,5.74
2022-11-30T21:26:36.887Z,5.88
2022-11-30T21:29:07.223Z,5.58
2022-11-30T21:31:34.975Z,5.71
2022-11-30T21:34:02.656Z,5.87
2022-11-30T21:36:30.004Z,5.87
2022-11-30T21:39:05.058Z,5.83
2022-11-30T21:41:38.781Z,5.81
2022-11-30T21:44:11.684Z,5.84
2022-11-30T21:46:39.178Z,5.79
2022-11-30T21:49:06.656Z,5.75
2022-11-30T21:51:34.153Z,5.69
2022-11-30T21:54:05.797Z,5.66
2022-11-30T21:56:35.708Z,5.51
2022-11-30T21:59:08.499Z,5.61
2022-11-30T22:01:38.406Z,5.76
2022-11-30T22:04:08.397Z,5.78
2022-11-30T22:06:37.816Z,5.77
2022-11-30T22:09:09.175Z,5.72
2022-11-30T22:11:41.712Z,5.62
2022-11-30T22:14:13.843Z,5.65
2022-11-30T22:16:41.125Z,5.64
2022-11-30T22:19:08.358Z,5.43
2022-11-30T22:21:36.164Z,5.68
2022-11-30T22:24:09.555Z,5.66
2022-11-30T22:26:41.851Z,5.67
2022-11-30T22:29:20.763Z,5.68
2022-11-30T22:31:49.806Z,5.70
2022-11-30T22:34:17.190Z,5.69
2022-11-30T22:36:45.350Z,5.69
2022-11-30T22:39:15.356Z,5.64
2022-11-30T22:41:45.273Z,5.82
2022-11-30T22:44:14.509Z,5.58
2022-11-30T22:46:44.916Z,5.89
2022-11-30T22:49:20.730Z,5.76
2022-11-30T22:51:49.963Z,5.96
2022-11-30T22:54:17.861Z,5.83
2022-11-30T22:56:46.750Z,5.86
2022-11-30T22:59:15.133Z,5.89
2022-11-30T23:01:45.601Z,5.94
2022-11-30T23:04:16.578Z,5.87
2022-11-30T23:06:44.705Z,5.90
2022-11-30T23:09:14.772Z,5.91
2022-11-30T23:11:42.274Z,5.93
2022-11-30T23:14:10.060Z,5.79
2022-11-30T23:16:37.410Z,5.54
2022-11-30T23:19:05.322Z,5.64
2022-11-30T23:21:41.381Z,5.88
2022-11-30T23:24:13.615Z,5.80
2022-11-30T23:26:42.698Z,5.82
2022-11-30T23:29:15.077Z,5.61
2022-11-30T23:31:44.105Z,5.87
2022-11-30T23:34:15.231Z,5.60
2022-11-30T23:36:42.495Z,5.75
2022-11-30T23:39:15.040Z,5.81
2022-11-30T23:41:42.784Z,5.75
2022-11-30T23:44:10.318Z,5.73
2022-11-30T23:46:38.069Z,5.66
2022-11-30T23:49:06.855Z,5.76
2022-11-30T23:51:34.039Z,5.81
2022-11-30T23:54:01.299Z,5.58
2022-11-30T23:56:28.348Z,5.78
2022-11-30T23:58:55.409Z,5.66
